Latest Weather Observations for Melbourne

IDV60901

Issued at 6:05 pm EST Monday 22 September 2014 (issued every 10 minutes, with the page automatically refreshed every 10 minutes)

About weather observations | Map of Melbourne area stations | Latest observations for Melbourne area | Other Formats
Station Details ID: 086071 Name: MELBOURNE REGIONAL OFFICE Lat: -37.81 Lon: 144.97 Height: 31.15 m
Data from the previous 72 hours. | See also: Recent months at Melbourne

* Apparent temperature (App Temp) for Melbourne is calculated using temperature observations collected at Melbourne and wind observations collected at Melbourne (Olympic Park), as wind observations are not currently provided for Melbourne.

Date/Time
EST
Tmp

°C
App
Tmp
°C
Dew
Point
°C
Rel
Hum
%
Delta-T

°C
Wind Press
QNH
hPa
Press
MSL
hPa
Rain
since
9 am
mm
Dir
 
Spd
km/h
Gust
km/h
Spd
kts
Gust
kts
22/06:00pm 20.9 17.5 6.1 38 7.4 N 13 - 7 - 1025.9 1025.9 0.0
22/05:30pm 21.5 18.0 7.0 39 7.4 N 15 - 8 - 1025.7 - 0.0
22/05:00pm 22.1 18.1 5.1 33 8.4 N 15 - 8 - 1025.5 - 0.0
22/04:30pm 22.6 18.4 3.8 29 9.1 N 15 - 8 - 1025.4 - 0.0
22/04:00pm 23.0 17.7 1.8 24 9.9 N 19 - 10 - 1025.4 - 0.0
22/03:30pm 22.7 18.4 3.3 28 9.3 N 15 - 8 - 1025.5 - 0.0
22/03:00pm 22.9 18.5 4.9 31 8.9 N 17 - 9 - 1025.7 1025.7 0.0
22/02:30pm 22.4 17.8 3.7 29 9.1 N 17 - 9 - 1025.9 - 0.0
22/02:00pm 22.2 17.4 2.7 27 9.3 N 17 - 9 - 1026.2 - 0.0
22/01:30pm 21.6 17.1 4.2 32 8.5 NNW 17 - 9 - 1026.6 - 0.0
22/01:00pm 21.6 17.0 5.7 35 8.0 N 19 - 10 - 1026.8 - 0.0
22/12:30pm 21.2 16.2 4.8 34 8.0 NNE 20 - 11 - 1027.4 - 0.0
22/12:00pm 20.3 15.5 4.8 36 7.5 N 19 - 10 - 1027.9 1027.9 0.0
22/11:30am 20.1 15.5 5.7 39 7.1 N 19 - 10 - 1028.3 - 0.0
22/11:00am 19.4 16.3 5.4 40 6.9 N 11 - 6 - 1028.7 - 0.0
22/10:30am 17.2 14.8 6.9 50 5.1 NNE 9 - 5 - 1028.9 - 0.0
22/10:00am 15.5 13.3 6.4 54 4.4 N 7 - 4 - 1029.4 - 0.0
22/09:30am 12.8 10.7 5.8 62 3.3 NNE 6 - 3 - - - 0.0
22/09:00am 11.7 9.9 5.6 66 2.8 NNE 4 - 2 - 1029.9 1029.9 0.0
22/08:30am 9.9 7.6 4.7 70 2.3 NNE 6 - 3 - 1029.8 - 0.0
22/08:00am 8.4 5.8 4.0 74 1.9 NNE 7 - 4 - 1029.8 - 0.0
22/07:30am 7.3 3.8 3.5 77 1.6 NNE 11 - 6 - 1029.7 - 0.0
22/07:00am 6.0 2.5 3.3 83 1.1 NNE 11 - 6 - 1029.6 - 0.0
22/06:30am 5.7 2.2 3.5 86 0.9 NNE 11 - 6 - 1029.4 - 0.0
22/06:00am 5.8 2.7 3.4 84 1.0 NE 9 - 5 - 1029.1 1029.1 0.0
22/05:30am 6.2 2.8 3.8 85 1.0 NNE 11 - 6 - 1029.0 - 0.0
22/05:00am 6.3 3.3 4.2 86 0.9 NE 9 - 5 - 1028.7 - 0.0
22/04:30am 6.6 4.2 4.3 85 1.0 NNE 6 - 3 - 1028.8 - 0.0
22/04:00am 6.9 3.9 4.3 83 1.1 NNE 9 - 5 - 1028.9 - 0.0
22/03:30am 7.3 4.4 4.5 82 1.2 NNE 9 - 5 - 1028.8 - 0.0
22/03:00am 7.8 5.4 5.1 83 1.2 NE 7 - 4 - 1029.0 1029.0 0.0
22/02:30am 8.2 7.2 5.5 83 1.2 CALM 0 - 0 - 1029.0 - 0.0
22/02:00am 8.8 7.8 5.5 80 1.5 CALM 0 - 0 - 1029.4 - 0.0
22/01:30am 9.5 8.1 5.5 76 1.8 ESE 2 - 1 - 1029.6 - 0.0
22/01:00am 9.9 8.9 5.7 75 1.9 CALM 0 - 0 - 1029.6 - 0.0
22/12:30am 10.1 9.1 5.7 74 2.0 CALM 0 - 0 - 1029.5 - 0.0
22/12:00am 10.2 9.2 5.8 74 2.0 SW 0 - 0 - 1029.5 1029.5 0.0
 
Date/Time
EST
Tmp

°C
App
Tmp
°C
Dew
Point
°C
Rel
Hum
%
Delta-T

°C
Wind Press
QNH
hPa
Press
MSL
hPa
Rain
since
9 am
mm
Dir
 
Spd
km/h
Gust
km/h
Spd
kts
Gust
kts
21/11:30pm 10.5 9.6 5.9 73 2.1 CALM 0 - 0 - 1029.6 - 0.0
21/11:00pm 11.1 10.2 5.9 70 2.4 CALM 0 - 0 - 1029.9 - 0.0
21/10:30pm 11.7 10.8 5.9 67 2.7 CALM 0 - 0 - 1030.1 - 0.0
21/10:00pm 11.8 10.8 5.5 65 2.9 SSE 0 - 0 - 1030.3 - 0.0
21/09:30pm 12.1 11.1 5.4 63 3.1 CALM 0 - 0 - 1030.5 - 0.0
21/09:00pm 12.4 11.3 5.2 61 3.3 CALM 0 - 0 - 1030.5 1030.5 0.0
21/08:30pm 12.6 10.4 5.2 60 3.4 S 6 - 3 - 1030.5 - 0.0
21/08:00pm 12.8 10.5 5.5 61 3.4 S 7 - 4 - 1030.4 - 0.0
21/07:30pm 13.1 10.1 6.1 62 3.3 SSE 11 - 6 - 1030.3 - 0.0
21/07:00pm 13.4 10.5 6.5 63 3.3 S 11 - 6 - 1030.1 - 0.0
21/06:30pm 13.3 10.4 6.3 62 3.3 S 11 - 6 - 1029.9 - 0.0
21/06:00pm 13.9 11.3 6.1 59 3.7 S 9 - 5 - 1029.7 1029.7 0.0
21/05:30pm 14.7 11.1 6.6 58 3.9 S 15 - 8 - 1029.5 - 0.0
21/05:00pm 15.1 11.4 6.1 55 4.3 SSW 15 - 8 - 1029.3 - 0.0
21/04:30pm 15.8 12.4 5.7 51 4.9 SSW 13 - 7 - 1029.2 - 0.0
21/04:00pm 16.2 12.0 5.5 49 5.1 SSW 17 - 9 - 1029.3 - 0.0
21/03:30pm 17.0 12.7 5.3 46 5.6 SSW 17 - 9 - 1029.2 - 0.0
21/03:00pm 17.2 13.7 5.3 45 5.7 SSW 13 - 7 - 1029.3 1029.3 0.0
21/02:30pm 17.0 13.4 5.0 45 5.7 SW 13 - 7 - 1029.6 - 0.0
21/02:00pm 16.4 12.8 4.9 46 5.5 SW 13 - 7 - 1029.9 - 0.0
21/01:30pm 16.7 12.8 5.4 47 5.4 S 15 - 8 - 1030.3 - 0.0
21/01:00pm 16.6 12.4 5.5 48 5.3 SSW 17 - 9 - 1030.7 - 0.0
21/12:30pm 15.9 11.8 4.5 46 5.3 SSW 15 - 8 - 1030.9 - 0.0
21/12:00pm 16.5 12.5 4.8 46 5.5 S 15 - 8 - 1031.2 1031.2 0.0
21/11:30am 16.5 12.5 4.8 46 5.5 SSW 15 - 8 - 1031.6 - 0.0
21/11:00am 16.2 12.1 4.4 45 5.5 SSW 15 - 8 - 1031.7 - 0.0
21/10:30am 16.6 13.7 4.4 44 5.7 SSE 9 - 5 - 1031.7 - 0.0
21/10:00am 15.5 11.7 3.9 46 5.4 S 13 - 7 - 1031.8 - 0.0
21/09:30am 14.7 11.5 3.3 46 5.2 ESE 9 - 5 - 1031.6 - 0.0
21/09:00am 13.9 10.8 3.4 49 4.7 SSE 9 - 5 - 1031.5 1031.5 0.0
21/08:30am 13.4 10.2 3.3 50 4.5 SE 9 - 5 - 1031.2 - 0.0
21/08:00am 12.9 9.8 3.7 53 4.1 ESE 9 - 5 - 1031.3 - 0.0
21/07:30am 12.6 9.8 3.3 53 4.1 SSE 7 - 4 - 1031.1 - 0.0
21/07:00am 12.5 9.3 3.2 53 4.1 SE 9 - 5 - 1030.8 - 0.0
21/06:30am 12.2 10.0 3.6 55 3.8 S 4 - 2 - 1030.6 - 0.0
21/06:00am 12.1 9.9 3.2 54 3.9 S 4 - 2 - 1030.2 1030.2 0.0
21/05:30am 12.0 9.5 3.9 57 3.6 SE 6 - 3 - 1030.1 - 0.0
21/05:00am 12.1 9.2 4.8 61 3.3 SSE 9 - 5 - 1030.0 - 0.0
21/04:30am 11.9 10.8 6.8 71 2.4 S 2 - 1 - 1029.8 - 0.0
21/04:00am 11.8 11.2 7.2 73 2.2 CALM 0 - 0 - 1029.7 - 0.0
21/03:30am 11.9 11.3 7.3 73 2.2 CALM 0 - 0 - 1029.6 - 0.0
21/03:00am 11.8 11.2 7.4 74 2.1 CALM 0 - 0 - 1029.7 1029.7 0.0
21/02:30am 11.8 10.4 7.2 73 2.2 ESE 4 - 2 - 1029.7 - 0.0
21/02:00am 11.7 10.7 7.5 75 2.0 SSE 2 - 1 - 1029.9 - 0.0
21/01:30am 11.8 10.5 7.7 76 2.0 ESE 4 - 2 - 1030.0 - 0.0
21/01:00am 11.9 10.9 7.5 74 2.1 SSE 2 - 1 - 1030.0 - 0.0
21/12:30am 12.0 10.3 7.4 73 2.2 SSE 6 - 3 - 1030.1 - 0.0
21/12:00am 12.0 10.6 7.4 73 2.2 SSE 4 - 2 - 1030.1 1030.1 0.0
 
Date/Time
EST
Tmp

°C
App
Tmp
°C
Dew
Point
°C
Rel
Hum
%
Delta-T

°C
Wind Press
QNH
hPa
Press
MSL
hPa
Rain
since
9 am
mm
Dir
 
Spd
km/h
Gust
km/h
Spd
kts
Gust
kts
20/11:30pm 12.0 10.2 7.2 72 2.3 S 6 - 3 - 1030.0 - 0.0
20/11:00pm 12.0 11.0 7.2 72 2.3 S 2 - 1 - 1029.9 - 0.0
20/10:30pm 11.9 11.3 7.3 73 2.2 CALM 0 - 0 - 1030.0 - 0.0
20/10:00pm 12.2 10.8 7.2 71 2.4 SSE 4 - 2 - 1030.0 - 0.0
20/09:30pm 12.4 10.6 7.2 70 2.5 S 6 - 3 - 1030.1 - 0.0
20/09:00pm 12.9 10.2 7.3 69 2.7 SSE 11 - 6 - 1030.2 1030.2 0.0
20/08:30pm 13.1 10.0 7.3 68 2.8 SSE 13 - 7 - 1030.1 - 0.0
20/08:00pm 13.1 10.3 7.1 67 2.9 SSE 11 - 6 - 1030.0 - 0.0
20/07:30pm 13.4 10.3 7.2 66 3.0 SSE 13 - 7 - 1029.7 - 0.0
20/07:00pm 13.4 9.5 7.2 66 3.0 SSE 17 - 9 - 1029.3 - 0.0
20/06:30pm 13.6 10.3 6.2 61 3.5 SSE 13 - 7 - 1029.0 - 0.0
20/06:00pm 14.0 11.0 7.9 66 3.0 S 13 - 7 - 1028.7 1028.7 0.0
20/05:30pm 14.0 10.7 7.9 66 3.0 S 15 - 8 - 1028.5 - 0.0
20/05:00pm 14.9 11.6 8.1 64 3.4 SSW 15 - 8 - 1028.2 - 0.0
20/04:30pm 14.6 11.2 7.5 62 3.5 S 15 - 8 - 1027.9 - 0.0
20/04:00pm 15.6 11.5 7.8 59 3.9 S 19 - 10 - 1027.6 - 0.0
20/03:30pm 15.8 12.3 7.0 56 4.3 SSW 15 - 8 - 1027.4 - 0.0
20/03:00pm 16.0 12.0 6.5 53 4.6 S 17 - 9 - 1027.2 1027.2 0.0
20/02:30pm 16.4 12.9 7.1 54 4.6 S 15 - 8 - 1027.1 - 0.0
20/02:00pm 16.8 12.5 7.1 52 4.8 S 19 - 10 - 1027.1 - 0.0
20/01:30pm 16.1 11.8 7.7 57 4.2 S 20 - 11 - 1027.1 - 0.0
20/01:00pm 16.6 12.7 7.3 54 4.6 S 17 - 9 - 1027.2 - 0.0
20/12:30pm 15.5 11.7 7.6 59 3.9 SSW 17 - 9 - 1027.5 - 0.0
20/12:00pm 15.4 12.4 7.5 59 3.9 SSW 13 - 7 - 1027.6 1027.6 0.0
20/11:30am 14.2 11.2 7.5 64 3.3 S 13 - 7 - 1027.8 - 0.0
20/11:00am 14.0 10.3 7.9 66 3.0 SSW 17 - 9 - 1028.0 - 0.0
20/10:30am 14.4 11.5 8.2 66 3.1 SW 13 - 7 - 1028.0 - 0.0
20/10:00am 14.2 11.2 7.9 66 3.1 SSW 13 - 7 - 1028.2 - 0.0
20/09:30am 13.0 10.6 8.6 74 2.2 SSW 11 - 6 - 1028.2 - 0.0
20/09:00am 13.0 10.4 7.7 70 2.6 S 11 - 6 - 1028.0 1028.0 0.2
20/08:30am 12.6 10.6 8.6 76 2.0 S 9 - 5 - 1027.8 - 0.2
20/08:00am 12.4 9.9 8.1 75 2.1 S 11 - 6 - 1027.5 - 0.2
20/07:30am 11.7 10.3 8.9 83 1.4 SSW 6 - 3 - 1027.2 - 0.2
20/07:00am 11.2 9.7 9.0 86 1.1 SSW 7 - 4 - 1026.9 - 0.2
20/06:30am 11.3 10.7 7.6 78 1.8 CALM 0 - 0 - 1026.5 - 0.2
20/06:00am 11.1 9.7 7.1 76 1.9 SW 4 - 2 - 1026.2 1026.2 0.2
20/05:30am 10.8 8.5 5.8 71 2.3 W 7 - 4 - 1025.8 - 0.2
20/05:00am 10.5 8.4 5.7 72 2.2 W 6 - 3 - 1025.4 - 0.2
20/04:30am 10.5 8.3 5.5 71 2.3 W 6 - 3 - 1025.0 - 0.2
20/04:00am 10.7 9.0 5.9 72 2.2 WNW 4 - 2 - 1025.1 - 0.2
20/03:30am 11.1 10.1 5.7 69 2.5 CALM 0 - 0 - 1025.0 - 0.2
20/03:00am 11.2 9.9 6.0 70 2.4 SW 2 - 1 - 1024.9 1024.9 0.2
20/02:30am 11.5 8.9 6.1 69 2.5 W 9 - 5 - 1025.2 - 0.2
20/02:00am 11.4 9.3 6.0 69 2.5 W 6 - 3 - 1025.3 - 0.2
20/01:30am 11.5 10.7 6.6 72 2.3 CALM 0 - 0 - 1025.4 - 0.2
20/01:00am 11.5 9.5 6.1 69 2.5 SW 6 - 3 - 1025.6 - 0.2
20/12:30am 11.7 9.1 6.1 68 2.6 WSW 9 - 5 - 1025.4 - 0.2
20/12:00am 12.3 11.2 6.8 69 2.6 SSW 2 - 1 - 1025.2 1025.2 0.2
 
Date/Time
EST
Tmp

°C
App
Tmp
°C
Dew
Point
°C
Rel
Hum
%
Delta-T

°C
Wind Press
QNH
hPa
Press
MSL
hPa
Rain
since
9 am
mm
Dir
 
Spd
km/h
Gust
km/h
Spd
kts
Gust
kts
19/11:30pm 12.7 10.6 6.8 67 2.8 SW 7 - 4 - 1025.3 - 0.2
19/11:00pm 12.8 10.4 7.0 68 2.8 SSW 9 - 5 - 1025.5 - 0.2
19/10:30pm 13.0 11.0 7.0 67 2.9 SSW 7 - 4 - 1025.7 - 0.2
19/10:00pm 12.9 11.0 6.6 65 3.0 SW 6 - 3 - 1025.8 - 0.2
19/09:30pm 13.0 10.3 5.7 61 3.4 S 9 - 5 - 1025.8 - 0.2
19/09:00pm 12.9 10.3 5.9 62 3.3 S 9 - 5 - 1025.7 1025.7 0.2
19/08:30pm 13.2 10.6 6.0 61 3.4 S 9 - 5 - 1025.5 - 0.2
19/08:00pm 13.2 10.2 6.2 62 3.3 S 11 - 6 - 1025.4 - 0.2
19/07:30pm 13.1 10.5 7.6 69 2.7 S 11 - 6 - 1025.1 - 0.2
19/07:00pm 13.2 10.9 7.4 68 2.8 SSW 9 - 5 - 1024.8 - 0.2
19/06:30pm 13.1 10.7 7.1 67 2.9 S 9 - 5 - 1024.6 - 0.2

Latest Capital City Observations: Canberra | Sydney | Melbourne | Brisbane | Adelaide | Perth | Hobart | Darwin

Other Formats:

Comma delimited format used in spreadsheet applications
http://www.bom.gov.au/fwo/IDV60901/IDV60901.94868.axf

JavaScript Object Notation format (JSON) in row-major order
http://www.bom.gov.au/fwo/IDV60901/IDV60901.94868.json